Aviation Digital Data Service (ADDS)

Output produced by METARs form (0142 UTC 23 November 2017)
found at http://www.aviationweather.gov/adds/metars/
 
LMML 230115Z 04001KT 9999 BKN033 14/11 Q1021 NOSIG
TAF LMML 222300Z 2300/2324 VRB06KT 9999 SCT035 
     PROB40 
     TEMPO 2309/2324 9000 -SHRA BKN030TCU 
     PROB30 
     TEMPO 2312/2324 VRB15G25KT -TSRA BKN025CB